Time;durP1;ratioP1;P1;durP2;ratioP2;P2;SDS_P1;SDS_P2;PMS_P1;PMS_P2;Temp;Humidity;BMP_temperature;BMP_pressure;BME280_temperature;BME280_humidity;BME280_pressure;Samples;Min_cycle;Max_cycle;Signal;HPM_P1;HPM_P2
2023/08/01 00:02:11;;;;;;;5.22;2.28;;;16.30;99.90;;;16.54;100.00;98459.69;5023293;28;20173;-75
2023/08/01 00:04:37;;;;;;;7.05;2.10;;;16.20;99.90;;;16.36;100.00;98455.16;5045756;28;20034;-75
2023/08/01 00:07:03;;;;;;;5.82;2.17;;;16.20;99.90;;;16.54;100.00;98447.88;5019484;28;20042;-77
2023/08/01 00:10:01;;;;;;;;;;;;;;;;;;;;;
2023/08/01 00:13:12;;;;;;;3.75;2.05;;;16.10;99.90;;;16.53;100.00;98452.56;5023387;28;20572;-75
2023/08/01 00:16:02;;;;;;;5.13;2.35;;;16.10;99.90;;;16.09;100.00;98371.56;5037035;28;20048;-76
2023/08/01 00:18:36;;;;;;;6.25;2.42;;;16.10;99.90;;;16.01;100.00;98356.59;5017788;28;20040;-76
2023/08/01 00:21:11;;;;;;;4.55;2.65;;;16.10;99.90;;;16.32;100.00;98443.13;5032886;28;20401;-75
2023/08/01 00:24:08;;;;;;;5.13;2.30;;;16.10;99.90;;;16.16;100.00;98379.41;4996623;28;20458;-76
2023/08/01 00:27:10;;;;;;;;;;;;;;;;;;;;;
2023/08/01 00:30:08;;;;;;;4.38;2.75;;;16.10;99.90;;;16.28;100.00;98418.16;5028939;28;20037;-76
2023/08/01 00:32:39;;;;;;;4.35;2.60;;;16.10;99.90;;;16.31;100.00;98434.09;5028012;28;20073;-77
2023/08/01 00:35:05;;;;;;;3.25;1.95;;;16.20;99.90;;;16.37;100.00;98404.50;5027711;28;20041;-76
2023/08/01 00:37:40;;;;;;;4.03;2.30;;;16.10;99.90;;;16.17;100.00;98368.06;5031767;28;20135;-77
2023/08/01 00:40:55;;;;;;;5.53;2.15;;;16.10;99.90;;;15.69;100.00;98273.16;5039218;28;20046;-77
2023/08/01 00:44:00;;;;;;;3.88;2.22;;;16.10;99.90;;;15.93;100.00;98299.59;5014146;28;20498;-78
2023/08/01 00:46:47;;;;;;;5.80;2.20;;;16.10;99.90;;;16.15;100.00;98323.56;5020819;28;20045;-76
2023/08/01 00:49:20;;;;;;;4.93;2.47;;;16.00;99.90;;;15.74;100.00;98269.50;5030699;28;20039;-77
2023/08/01 00:52:00;;;;;;;5.75;2.35;;;16.00;99.90;;;16.22;100.00;98312.97;5008615;28;20036;-77
2023/08/01 00:54:38;;;;;;;4.40;2.20;;;16.00;99.90;;;16.01;100.00;98273.31;5041182;28;20037;-77
2023/08/01 00:57:24;;;;;;;3.55;2.45;;;16.10;99.90;;;16.50;100.00;98353.28;4998441;28;20049;-75
2023/08/01 00:59:50;;;;;;;4.03;2.10;;;16.10;99.90;;;16.47;100.00;98362.19;5045254;28;20037;-75
2023/08/01 01:02:16;;;;;;;3.80;2.22;;;16.10;99.90;;;16.46;100.00;98361.38;5044498;28;20064;-75
2023/08/01 01:04:41;;;;;;;4.03;2.30;;;16.10;99.90;;;16.32;100.00;98358.69;5029607;28;20478;-75
2023/08/01 01:07:08;;;;;;;4.72;2.10;;;16.00;99.90;;;16.25;100.00;98363.78;5026637;28;20042;-75
2023/08/01 01:09:34;;;;;;;6.65;2.22;;;16.00;99.90;;;16.43;100.00;98377.69;5024001;28;20038;-74
2023/08/01 01:12:00;;;;;;;4.35;1.98;;;16.00;99.90;;;16.46;100.00;98377.91;5029627;28;20033;-75
2023/08/01 01:14:27;;;;;;;7.70;2.15;;;16.10;99.90;;;16.46;100.00;98385.31;5044817;28;20500;-75
2023/08/01 01:17:05;;;;;;;6.53;2.50;;;16.10;99.90;;;16.43;100.00;98386.75;5044886;28;20037;-75
2023/08/01 01:19:38;;;;;;;6.32;1.80;;;16.10;99.90;;;16.36;100.00;98383.63;5018765;28;20041;-76
2023/08/01 01:22:06;;;;;;;3.00;1.90;;;16.10;99.90;;;16.48;100.00;98414.16;5027282;28;20055;-75
2023/08/01 01:24:35;;;;;;;5.60;2.20;;;16.10;99.90;;;16.19;100.00;98404.38;5018299;28;20061;-75
2023/08/01 01:27:03;;;;;;;4.85;1.77;;;16.10;99.90;;;16.34;100.00;98377.63;5027172;28;20489;-76
2023/08/01 01:29:32;;;;;;;4.20;1.98;;;16.10;99.90;;;16.42;100.00;98378.81;5027619;28;20052;-76
2023/08/01 01:32:00;;;;;;;3.53;1.90;;;16.10;99.90;;;16.47;100.00;98386.94;5029135;28;20121;-77
2023/08/01 01:34:27;;;;;;;4.45;1.98;;;16.10;99.90;;;16.46;100.00;98399.91;5029989;28;20030;-77
2023/08/01 01:36:54;;;;;;;4.63;1.80;;;16.10;99.90;;;16.50;100.00;98400.91;5027949;28;20052;-76
2023/08/01 01:39:20;;;;;;;3.65;1.70;;;16.10;99.90;;;16.53;100.00;98411.28;5030099;28;20038;-76
2023/08/01 01:41:46;;;;;;;4.03;1.85;;;16.00;99.90;;;16.52;100.00;98406.91;5023730;28;20046;-76
2023/08/01 01:44:12;;;;;;;4.93;1.50;;;16.10;99.90;;;16.54;100.00;98418.41;5026498;28;20574;-76
2023/08/01 01:46:38;;;;;;;4.75;1.52;;;16.00;99.90;;;16.61;100.00;98425.44;5043597;28;20041;-77
2023/08/01 01:49:03;;;;;;;3.30;1.80;;;16.00;99.90;;;16.55;100.00;98438.47;5027995;28;20038;-76
2023/08/01 01:51:30;;;;;;;3.03;1.88;;;16.10;99.90;;;16.55;100.00;98430.22;5040479;28;20048;-76
2023/08/01 01:53:56;;;;;;;2.72;1.60;;;16.00;99.90;;;16.58;100.00;98426.88;5013021;28;20040;-76
2023/08/01 01:56:22;;;;;;;3.28;1.55;;;16.00;99.90;;;16.54;100.00;98425.84;5020287;28;20524;-76
2023/08/01 01:58:48;;;;;;;2.90;1.40;;;16.00;99.90;;;16.52;100.00;98431.69;5027306;28;20025;-76
2023/08/01 02:01:14;;;;;;;2.58;1.50;;;16.00;99.90;;;16.53;100.00;98425.06;5043970;28;20059;-76
2023/08/01 02:03:42;;;;;;;6.07;1.83;;;16.00;99.90;;;16.53;100.00;98419.53;5043447;28;20390;-76
2023/08/01 02:06:09;;;;;;;4.68;1.40;;;16.00;99.90;;;16.53;100.00;98416.78;5043431;28;20196;-76
2023/08/01 02:08:34;;;;;;;3.38;1.40;;;16.00;99.90;;;16.30;100.00;98387.63;5029328;28;20041;-76
2023/08/01 02:11:01;;;;;;;3.28;1.30;;;16.00;99.90;;;16.41;100.00;98386.25;5029473;28;20504;-76
2023/08/01 02:13:28;;;;;;;3.70;1.30;;;16.00;99.90;;;16.43;100.00;98381.25;5029089;28;20037;-76
2023/08/01 02:15:54;;;;;;;3.67;1.33;;;16.00;99.90;;;16.44;100.00;98363.59;5019175;28;20080;-77
2023/08/01 02:18:20;;;;;;;2.70;1.27;;;16.00;99.90;;;16.38;100.00;98356.59;5019786;28;20402;-76
2023/08/01 02:20:46;;;;;;;3.78;1.02;;;16.00;99.90;;;16.37;100.00;98341.22;5016792;28;20072;-76
2023/08/01 02:23:12;;;;;;;1.40;0.85;;;16.00;99.90;;;16.34;100.00;98331.66;5040943;28;20061;-76
2023/08/01 02:25:40;;;;;;;5.13;1.13;;;16.00;99.90;;;16.36;100.00;98331.34;5037253;28;20044;-75
2023/08/01 02:28:06;;;;;;;3.60;1.10;;;16.00;99.90;;;16.32;100.00;98314.66;5027195;28;20542;-76
2023/08/01 02:30:35;;;;;;;4.32;0.90;;;16.00;99.90;;;16.29;100.00;98304.25;5028314;28;20033;-75
2023/08/01 02:33:02;;;;;;;1.70;0.82;;;16.00;99.90;;;16.34;100.00;98301.41;5028160;28;20040;-76
2023/08/01 02:35:29;;;;;;;2.38;1.02;;;16.00;99.90;;;16.34;100.00;98286.81;5027413;28;20497;-76
2023/08/01 02:37:55;;;;;;;1.38;0.80;;;15.90;99.90;;;16.39;100.00;98294.94;5016690;28;20033;-76
2023/08/01 02:40:21;;;;;;;3.42;0.80;;;16.00;99.90;;;16.31;100.00;98296.53;5043228;28;20033;-76
2023/08/01 02:42:47;;;;;;;2.90;0.90;;;16.00;99.90;;;16.34;100.00;98293.16;5016673;28;20082;-76
2023/08/01 02:45:13;;;;;;;2.08;0.98;;;15.90;99.90;;;16.36;100.00;98281.81;5026701;28;20056;-76
2023/08/01 02:47:38;;;;;;;2.90;0.70;;;15.90;99.90;;;16.36;100.00;98277.16;5027814;28;20045;-76
2023/08/01 02:50:05;;;;;;;4.07;0.82;;;15.90;99.90;;;16.28;100.00;98277.88;5040606;28;20040;-76
2023/08/01 02:52:31;;;;;;;3.20;0.88;;;15.90;99.90;;;16.29;100.00;98285.00;5027207;28;20033;-76
2023/08/01 02:54:57;;;;;;;2.33;0.80;;;15.90;99.90;;;16.31;100.00;98265.44;5019791;28;20167;-76
2023/08/01 02:57:24;;;;;;;1.92;1.05;;;15.90;99.90;;;16.41;100.00;98272.63;5027932;28;20040;-76
2023/08/01 02:59:50;;;;;;;1.95;0.95;;;15.90;99.90;;;16.40;100.00;98266.31;5042988;28;20124;-76
2023/08/01 03:02:17;;;;;;;1.92;0.75;;;15.90;99.90;;;16.41;100.00;98264.38;5026667;28;20041;-76
2023/08/01 03:04:43;;;;;;;1.88;0.73;;;15.90;99.90;;;16.38;100.00;98269.38;5027919;28;20060;-76
2023/08/01 03:07:08;;;;;;;3.47;0.75;;;15.90;99.90;;;16.38;100.00;98261.13;5021073;28;20401;-76
2023/08/01 03:09:34;;;;;;;1.48;0.60;;;15.90;99.90;;;16.38;100.00;98260.31;5027846;28;20129;-76
2023/08/01 03:12:00;;;;;;;1.15;0.70;;;15.90;99.90;;;16.12;100.00;98238.94;5027651;28;20040;-76
2023/08/01 03:14:25;;;;;;;3.00;0.70;;;15.90;99.90;;;16.33;100.00;98252.19;5042407;28;20587;-76
2023/08/01 03:16:51;;;;;;;3.80;0.60;;;15.90;99.90;;;16.30;100.00;98256.38;5024235;28;20044;-76
2023/08/01 03:19:17;;;;;;;3.83;0.60;;;15.90;99.90;;;15.97;100.00;98245.63;5037668;28;20478;-76
2023/08/01 03:21:42;;;;;;;2.55;0.73;;;15.90;99.90;;;16.11;100.00;98231.81;5018554;28;20046;-76
2023/08/01 03:24:08;;;;;;;4.10;0.80;;;15.90;99.90;;;16.27;100.00;98223.19;5011601;28;20100;-77
2023/08/01 03:26:37;;;;;;;2.17;0.47;;;15.90;99.90;;;16.27;100.00;98201.97;5027813;28;20113;-76
2023/08/01 03:29:05;;;;;;;1.25;0.68;;;15.90;99.90;;;16.21;100.00;98193.06;5026963;28;20045;-76
2023/08/01 03:31:31;;;;;;;1.00;0.65;;;15.90;99.90;;;16.21;100.00;98206.81;5027404;28;20042;-76
2023/08/01 03:33:58;;;;;;;4.53;0.80;;;15.90;99.90;;;16.21;100.00;98198.56;5025213;28;20152;-76
2023/08/01 03:36:25;;;;;;;1.73;0.68;;;15.80;99.90;;;16.22;100.00;98194.69;5020728;28;20044;-76
2023/08/01 03:38:50;;;;;;;3.30;0.80;;;15.80;99.90;;;16.21;100.00;98187.56;5027977;28;20084;-76
2023/08/01 03:41:16;;;;;;;2.53;0.60;;;15.80;99.90;;;16.10;100.00;98197.19;5040541;28;20063;-75
2023/08/01 03:43:42;;;;;;;1.70;0.60;;;15.80;99.90;;;16.13;100.00;98193.81;5026638;28;20033;-76
2023/08/01 03:46:09;;;;;;;4.88;0.77;;;15.80;99.90;;;16.14;100.00;98189.13;5018439;28;20037;-76
2023/08/01 03:48:35;;;;;;;0.87;0.67;;;15.80;99.90;;;16.04;100.00;98179.19;5042699;28;20045;-76
2023/08/01 03:51:03;;;;;;;2.58;0.85;;;15.80;99.90;;;16.01;100.00;98150.38;5025050;28;20038;-75
2023/08/01 03:53:28;;;;;;;;;;;15.80;99.90;;;16.03;100.00;98159.13;5020351;28;20120;-76
2023/08/01 03:55:54;;;;;;;3.53;1.02;;;15.70;99.90;;;15.87;100.00;98150.41;5019691;28;20071;-77
2023/08/01 03:58:20;;;;;;;2.70;0.95;;;15.70;99.90;;;15.98;100.00;98159.25;5027449;28;20038;-76
2023/08/01 04:00:45;;;;;;;5.05;1.48;;;15.70;99.90;;;15.90;100.00;98154.53;5023172;28;20116;-77
2023/08/01 04:03:11;;;;;;;1.70;0.77;;;15.70;99.90;;;15.92;100.00;98155.00;5042493;28;20037;-76
2023/08/01 04:05:37;;;;;;;2.35;0.88;;;15.70;99.90;;;15.91;100.00;98154.22;5020764;28;20132;-76
2023/08/01 04:08:03;;;;;;;1.98;0.70;;;15.70;99.90;;;15.96;100.00;98148.59;5026240;28;20063;-76
2023/08/01 04:10:28;;;;;;;3.10;0.85;;;15.70;99.90;;;15.97;100.00;98143.88;5027281;28;20056;-76
2023/08/01 04:12:54;;;;;;;2.17;0.80;;;15.70;99.90;;;15.95;100.00;98137.88;5021364;28;20041;-77
2023/08/01 04:15:20;;;;;;;2.42;1.00;;;15.70;99.90;;;15.98;100.00;98141.97;5016926;28;20057;-76
2023/08/01 04:17:46;;;;;;;2.35;0.90;;;15.70;99.90;;;15.95;100.00;98126.88;5023336;28;20037;-76
2023/08/01 04:20:12;;;;;;;2.95;0.73;;;15.70;99.90;;;15.92;100.00;98103.59;5029254;28;20048;-76
2023/08/01 04:22:38;;;;;;;2.58;0.60;;;15.70;99.90;;;15.98;100.00;98107.00;5029736;28;20072;-76
2023/08/01 04:25:04;;;;;;;1.92;0.60;;;15.70;99.90;;;15.99;100.00;98116.88;5030238;28;20120;-75
2023/08/01 04:27:30;;;;;;;1.65;0.70;;;15.70;99.90;;;16.05;100.00;98120.31;5030512;28;20049;-76
2023/08/01 04:29:56;;;;;;;2.22;0.73;;;15.70;99.90;;;16.07;100.00;98129.88;5030512;28;20037;-76
2023/08/01 04:32:22;;;;;;;1.17;0.70;;;15.70;99.90;;;15.96;100.00;98139.50;5022089;28;20096;-76
2023/08/01 04:34:47;;;;;;;2.10;0.80;;;15.70;99.90;;;15.82;100.00;98126.63;5024410;28;20135;-76
2023/08/01 04:37:13;;;;;;;1.88;0.73;;;15.70;99.90;;;15.97;100.00;98138.38;5030414;28;20064;-76
2023/08/01 04:39:39;;;;;;;3.30;1.10;;;15.70;99.90;;;15.94;100.00;98125.28;5028725;28;20034;-76
2023/08/01 04:42:06;;;;;;;3.13;0.90;;;15.70;99.90;;;16.02;100.00;98123.69;5040594;28;20041;-78
2023/08/01 04:44:32;;;;;;;2.53;0.88;;;15.70;99.90;;;15.95;100.00;98121.38;5027443;28;20120;-76
2023/08/01 04:46:57;;;;;;;1.58;0.80;;;15.70;99.90;;;16.01;100.00;98124.81;5030895;28;20037;-78
2023/08/01 04:49:24;;;;;;;3.08;0.93;;;15.70;99.90;;;16.03;100.00;98133.56;5035849;28;20034;-77
2023/08/01 04:51:50;;;;;;;1.88;0.95;;;15.70;99.90;;;16.00;100.00;98145.22;5020495;28;20081;-77
2023/08/01 04:54:16;;;;;;;2.95;1.17;;;15.70;99.90;;;15.98;100.00;98147.47;5023555;28;20038;-77
2023/08/01 04:56:42;;;;;;;3.17;1.10;;;15.70;99.90;;;15.98;100.00;98144.72;5038920;28;20048;-76
2023/08/01 04:59:07;;;;;;;2.75;1.08;;;15.60;99.90;;;15.95;100.00;98152.47;5023523;28;20041;-77
2023/08/01 05:01:33;;;;;;;1.90;1.00;;;15.70;99.90;;;15.93;100.00;98160.22;5023454;28;20052;-75
2023/08/01 05:03:59;;;;;;;2.58;1.10;;;15.60;99.90;;;15.91;100.00;98154.22;5023041;28;20030;-76
2023/08/01 05:06:25;;;;;;;1.45;0.90;;;15.60;99.90;;;15.85;100.00;98141.66;5042220;28;20107;-76
2023/08/01 05:08:51;;;;;;;2.50;1.13;;;15.60;99.90;;;15.93;100.00;98159.38;5030024;28;20445;-76
2023/08/01 05:11:17;;;;;;;3.78;1.30;;;15.60;99.90;;;16.00;100.00;98162.50;5017978;28;20088;-77
2023/08/01 05:13:42;;;;;;;2.80;1.30;;;15.60;99.90;;;16.00;100.00;98164.44;5025784;28;20041;-77
2023/08/01 05:16:08;;;;;;;5.22;1.20;;;15.60;99.90;;;15.86;100.00;98159.78;5028227;28;20029;-77
2023/08/01 05:18:34;;;;;;;1.83;1.00;;;15.60;99.90;;;15.83;100.00;98157.66;5026424;28;20026;-77
2023/08/01 05:20:59;;;;;;;1.88;1.13;;;15.70;99.90;;;15.92;100.00;98153.09;5029261;28;20434;-78
2023/08/01 05:23:25;;;;;;;4.35;1.25;;;15.60;99.90;;;16.00;100.00;98143.25;5028399;28;20026;-78
2023/08/01 05:25:51;;;;;;;2.10;1.20;;;15.70;99.90;;;15.94;100.00;98133.53;5029715;28;20041;-77
2023/08/01 05:28:17;;;;;;;4.15;1.23;;;15.70;99.90;;;16.01;100.00;98155.06;5044227;28;20052;-75
2023/08/01 05:30:42;;;;;;;3.08;1.50;;;15.80;99.90;;;16.02;100.00;98160.25;5028905;28;20492;-75
2023/08/01 05:33:08;;;;;;;2.95;1.40;;;15.70;99.90;;;16.03;100.00;98158.31;5024436;28;20401;-75
2023/08/01 05:35:34;;;;;;;4.05;1.40;;;15.70;99.90;;;15.92;100.00;98153.09;5020345;28;20029;-76
2023/08/01 05:38:00;;;;;;;3.35;1.20;;;15.70;99.90;;;16.07;100.00;98156.56;5024281;28;20041;-77
2023/08/01 05:40:25;;;;;;;5.57;1.65;;;15.70;99.90;;;15.94;100.00;98155.50;5018444;28;20140;-77
2023/08/01 05:42:51;;;;;;;4.35;1.58;;;15.70;99.90;;;15.92;100.00;98175.09;5014530;28;20125;-78
2023/08/01 05:45:17;;;;;;;3.08;1.60;;;15.70;99.90;;;16.08;100.00;98177.44;5029129;28;20029;-77
2023/08/01 05:47:43;;;;;;;7.43;1.52;;;15.80;99.90;;;16.18;100.00;98190.94;5024991;28;20041;-77
2023/08/01 05:50:09;;;;;;;2.08;1.30;;;15.80;99.90;;;16.29;100.00;98193.41;5023639;28;20061;-78
2023/08/01 05:52:36;;;;;;;3.50;1.65;;;15.90;99.90;;;16.46;100.00;98193.53;5023528;28;20037;-76
2023/08/01 05:55:02;;;;;;;6.03;1.73;;;16.10;99.90;;;16.58;100.00;98194.88;5019773;28;20049;-77
2023/08/01 05:57:28;;;;;;;7.10;1.73;;;16.20;99.90;;;16.49;100.00;98220.41;5027888;28;20048;-77
2023/08/01 05:59:54;;;;;;;4.18;1.65;;;16.10;99.90;;;16.52;100.00;98228.03;5028820;28;20052;-78
2023/08/01 06:02:20;;;;;;;3.65;1.30;;;16.20;99.90;;;16.62;100.00;98237.13;5029406;28;20486;-81
2023/08/01 06:04:46;;;;;;;2.67;1.30;;;16.20;99.90;;;16.44;100.00;98256.28;5029078;28;20092;-77
2023/08/01 06:07:11;;;;;;;3.50;1.38;;;16.20;99.90;;;16.59;100.00;98268.03;5027578;28;20050;-77
2023/08/01 06:09:37;;;;;;;2.45;1.38;;;16.20;99.90;;;16.64;100.00;98279.75;5029125;28;20049;-77
2023/08/01 06:12:03;;;;;;;3.78;1.42;;;16.30;99.90;;;16.56;100.00;98291.50;5024194;28;20404;-75
2023/08/01 06:14:29;;;;;;;2.65;1.50;;;16.30;99.90;;;16.61;100.00;98290.56;5043189;28;20072;-76
2023/08/01 06:16:54;;;;;;;5.25;1.77;;;16.30;99.90;;;16.57;100.00;98312.38;5029069;28;20040;-76
2023/08/01 06:19:20;;;;;;;3.13;1.98;;;16.30;99.90;;;16.49;100.00;98329.66;5028406;28;20477;-75
2023/08/01 06:21:46;;;;;;;5.50;2.33;;;16.20;99.90;;;16.52;100.00;98329.84;5023822;28;20040;-76
2023/08/01 06:24:11;;;;;;;5.97;2.20;;;16.20;99.90;;;16.28;100.00;98362.34;5025174;28;20029;-75
2023/08/01 06:26:37;;;;;;;4.60;2.47;;;16.20;99.90;;;16.35;100.00;98371.81;5028547;28;20485;-75
2023/08/01 06:29:03;;;;;;;6.22;2.65;;;16.10;99.90;;;16.23;100.00;98371.53;5027988;28;20099;-76
2023/08/01 06:31:29;;;;;;;5.28;2.75;;;16.20;99.90;;;16.17;100.00;98381.81;5028281;28;20046;-77
2023/08/01 06:33:55;;;;;;;6.00;2.83;;;16.10;99.90;;;16.28;100.00;98352.16;5026887;28;20045;-76
2023/08/01 06:36:20;;;;;;;5.85;3.00;;;16.20;99.90;;;16.20;100.00;98372.97;5041575;28;20209;-77
2023/08/01 06:38:46;;;;;;;5.82;3.00;;;16.20;99.90;;;16.07;100.00;98384.81;5028624;28;20448;-75
2023/08/01 06:41:12;;;;;;;6.82;3.25;;;16.10;99.90;;;16.10;100.00;98385.03;5043287;28;20041;-76
2023/08/01 06:43:38;;;;;;;5.45;3.42;;;16.20;99.90;;;16.12;100.00;98392.16;5028151;28;20059;-76
2023/08/01 06:46:04;;;;;;;7.13;3.67;;;16.20;99.90;;;16.09;100.00;98396.31;5022436;28;20046;-76
2023/08/01 06:48:34;;;;;;;6.75;3.67;;;16.10;99.90;;;16.10;100.00;98415.28;5028991;28;20528;-76
2023/08/01 06:51:01;;;;;;;7.95;3.95;;;16.10;99.90;;;16.29;100.00;98430.00;5028183;28;20665;-77
2023/08/01 06:53:27;;;;;;;6.47;3.90;;;16.20;99.90;;;16.16;100.00;98448.97;5023727;28;20127;-77
2023/08/01 06:55:52;;;;;;;6.25;3.90;;;16.20;99.90;;;16.27;100.00;98440.50;5023488;28;20379;-77
2023/08/01 06:58:18;;;;;;;5.95;3.72;;;16.20;99.90;;;16.16;100.00;98432.47;5022199;28;20375;-76
2023/08/01 07:00:44;;;;;;;7.00;3.97;;;16.30;99.90;;;16.34;100.00;98444.47;5027193;28;20041;-76
2023/08/01 07:03:10;;;;;;;8.68;4.38;;;16.20;99.90;;;16.19;100.00;98453.03;5026126;28;20040;-77
2023/08/01 07:05:35;;;;;;;7.35;4.25;;;16.20;99.90;;;16.03;100.00;98458.06;5032458;28;20038;-77
2023/08/01 07:08:01;;;;;;;6.30;4.22;;;16.10;99.90;;;16.01;100.00;98452.84;5043513;28;20052;-76
2023/08/01 07:10:27;;;;;;;9.27;4.80;;;16.10;99.90;;;15.98;100.00;98453.47;5037125;28;20046;-75
2023/08/01 07:12:52;;;;;;;11.50;5.57;;;16.00;99.90;;;15.96;100.00;98444.72;5041221;28;20042;-77
2023/08/01 07:15:18;;;;;;;11.40;5.43;;;16.00;99.90;;;16.13;100.00;98457.84;5047393;28;20041;-76
2023/08/01 07:17:44;;;;;;;8.57;4.75;;;16.10;99.90;;;16.36;100.00;98453.22;5036934;28;20086;-77
2023/08/01 07:20:11;;;;;;;8.05;4.90;;;16.20;99.90;;;16.44;100.00;98478.38;5031652;28;20051;-76
2023/08/01 07:22:37;;;;;;;11.50;5.17;;;16.30;99.90;;;16.40;100.00;98508.44;5018337;28;20526;-75
2023/08/01 07:25:03;;;;;;;14.48;5.63;;;16.30;99.90;;;16.45;100.00;98516.59;5008508;28;20307;-78
2023/08/01 07:27:29;;;;;;;8.80;4.80;;;16.50;99.90;;;16.50;100.00;98541.25;5028154;28;20037;-77
2023/08/01 07:29:54;;;;;;;8.65;5.03;;;16.50;99.90;;;16.59;100.00;98554.28;5025920;28;20366;-77
2023/08/01 07:32:20;;;;;;;9.90;5.32;;;16.50;99.90;;;16.65;100.00;98564.06;5024059;28;20034;-77
2023/08/01 07:34:46;;;;;;;9.35;4.75;;;16.50;99.90;;;16.59;100.00;98571.63;5019477;28;20042;-78
2023/08/01 07:37:12;;;;;;;8.05;5.47;;;16.50;99.90;;;16.79;100.00;98592.41;5026552;28;20628;-78
2023/08/01 07:39:37;;;;;;;9.15;5.22;;;16.60;99.90;;;16.68;100.00;98607.47;5022407;28;20533;-78
2023/08/01 07:42:04;;;;;;;12.45;5.25;;;16.60;99.90;;;16.86;100.00;98611.25;5012128;28;20046;-78
2023/08/01 07:44:31;;;;;;;9.52;4.50;;;16.70;99.90;;;16.86;100.00;98615.94;5017472;28;20030;-78
2023/08/01 07:46:57;;;;;;;11.82;5.25;;;16.80;99.90;;;16.80;100.00;98627.06;5010611;28;20046;-78
2023/08/01 07:49:23;;;;;;;10.05;5.60;;;16.80;99.90;;;17.02;100.00;98633.81;5024732;28;20033;-76
2023/08/01 07:51:48;;;;;;;13.30;5.80;;;16.90;99.90;;;17.40;100.00;98661.03;5022966;28;20093;-77
2023/08/01 07:54:14;;;;;;;10.07;5.50;;;17.10;99.90;;;17.11;100.00;98681.53;5030087;28;20370;-75
2023/08/01 07:56:40;;;;;;;11.27;5.70;;;17.10;99.90;;;17.23;100.00;98696.69;5028264;28;20457;-75
2023/08/01 07:59:06;;;;;;;13.27;6.28;;;17.20;99.90;;;17.61;100.00;98712.13;5020286;28;20048;-75
2023/08/01 08:01:33;;;;;;;12.98;5.43;;;17.30;99.90;;;17.56;100.00;98726.84;5029210;28;20064;-76
2023/08/01 08:03:59;;;;;;;10.70;5.30;;;17.40;99.90;;;17.58;100.00;98762.38;5044271;28;20100;-77
2023/08/01 08:06:24;;;;;;;9.95;5.55;;;17.60;99.90;;;17.89;100.00;98784.56;5033007;28;20424;-76
2023/08/01 08:08:50;;;;;;;11.10;5.72;;;17.80;99.90;;;18.15;100.00;98808.00;5028748;28;20645;-76
2023/08/01 08:11:16;;;;;;;9.98;5.32;;;18.00;99.90;;;18.13;100.00;98810.25;5028907;28;20041;-76
2023/08/01 08:13:42;;;;;;;9.20;5.20;;;18.00;99.90;;;18.32;100.00;98832.19;5028607;28;20060;-75
2023/08/01 08:16:08;;;;;;;9.95;5.18;;;18.20;99.90;;;18.57;100.00;98843.72;5028424;28;20029;-75
2023/08/01 08:18:34;;;;;;;11.57;4.75;;;18.50;99.90;;;18.90;100.00;98865.53;5028533;28;20535;-75
2023/08/01 08:21:00;;;;;;;10.27;4.63;;;;;;;19.44;100.00;98879.28;5028445;28;20083;-75
2023/08/01 08:23:26;;;;;;;7.47;4.30;;;18.80;99.90;;;19.52;100.00;98894.28;5025464;28;20184;-75
2023/08/01 08:25:53;;;;;;;7.85;4.43;;;19.60;99.90;;;19.98;100.00;98906.84;5042827;28;20045;-76
2023/08/01 08:28:30;;;;;;;9.70;4.20;;;19.80;99.90;;;19.46;100.00;98912.97;5028130;28;20149;-75
2023/08/01 08:30:56;;;;;;;9.98;4.18;;;19.80;99.90;;;18.92;100.00;98896.41;5027658;28;20030;-75
2023/08/01 08:33:22;;;;;;;8.18;3.60;;;19.40;99.90;;;19.02;100.00;98900.91;5018460;28;20037;-75
2023/08/01 08:35:49;;;;;;;10.98;3.80;;;19.20;99.90;;;19.63;100.00;98908.66;5036294;28;20049;-75
2023/08/01 08:38:14;;;;;;;8.40;3.22;;;19.50;99.90;;;19.83;100.00;98904.47;5043759;28;20034;-75
2023/08/01 08:40:48;;;;;;;8.82;3.33;;;19.80;99.90;;;20.02;100.00;98900.66;5029795;28;20067;-76
2023/08/01 08:43:16;;;;;;;9.65;3.70;;;;;;;20.21;100.00;98909.47;5025889;28;20037;-77
2023/08/01 08:45:45;;;;;;;8.38;3.17;;;;;;;20.18;100.00;98912.06;5030053;28;20124;-77
2023/08/01 08:48:18;;;;;;;8.02;3.42;;;19.90;99.90;;;20.24;100.00;98913.53;5029090;28;20037;-76
2023/08/01 08:50:46;;;;;;;8.63;3.05;;;20.40;99.90;;;20.03;100.00;98922.47;5030578;28;20026;-76
2023/08/01 08:53:12;;;;;;;7.30;3.55;;;20.30;99.90;;;20.19;100.00;98922.84;5029733;28;20723;-76
2023/08/01 08:55:41;;;;;;;8.45;3.08;;;20.40;99.90;;;20.23;100.00;98923.81;5029794;28;20092;-77
2023/08/01 08:58:08;;;;;;;7.80;3.15;;;20.40;99.90;;;20.19;100.00;98919.22;5030359;28;20114;-77
2023/08/01 09:00:37;;;;;;;9.57;3.95;;;20.50;99.90;;;20.02;100.00;98917.25;5028868;28;20116;-77
2023/08/01 09:03:06;;;;;;;6.38;2.90;;;20.50;99.90;;;20.50;100.00;98916.34;5029253;28;20112;-77
2023/08/01 09:05:45;;;;;;;7.28;3.28;;;20.60;99.90;;;20.74;100.00;98915.03;5030140;28;20556;-77
2023/08/01 09:08:21;;;;;;;6.18;3.30;;;20.80;99.90;;;20.20;100.00;98924.47;5020861;28;20045;-80
2023/08/01 09:10:48;;;;;;;6.20;2.80;;;20.50;99.90;;;20.10;100.00;98933.06;5042750;28;20103;-77
2023/08/01 09:13:14;;;;;;;7.05;2.40;;;20.50;99.90;;;19.70;100.00;98920.06;5030132;28;20065;-79
2023/08/01 09:15:43;;;;;;;4.93;2.20;;;20.10;99.90;;;19.80;100.00;98921.72;5030613;28;20041;-78
2023/08/01 09:18:09;;;;;;;6.85;2.30;;;20.00;99.90;;;19.76;100.00;98926.28;5031132;28;20065;-79
2023/08/01 09:20:46;;;;;;;6.45;2.90;;;20.10;99.90;;;19.64;100.00;98924.94;5027706;28;20540;-78
2023/08/01 09:23:13;;;;;;;6.30;2.60;;;20.20;99.90;;;19.71;100.00;98912.59;5021302;28;20030;-79
2023/08/01 09:25:40;;;;;;;5.55;2.70;;;20.00;99.90;;;20.16;100.00;98917.94;5018718;28;20497;-78
2023/08/01 09:28:20;;;;;;;6.28;2.45;;;20.40;99.90;;;19.80;100.00;98922.56;5022260;28;20405;-79
2023/08/01 09:30:55;;;;;;;5.72;2.38;;;20.30;99.90;;;20.46;100.00;98920.91;5030410;28;20080;-79
2023/08/01 09:33:22;;;;;;;4.65;2.20;;;20.60;99.90;;;20.47;100.00;98922.53;5041393;28;20044;-78
2023/08/01 09:36:05;;;;;;;7.95;2.33;;;20.70;99.90;;;20.58;100.00;98925.78;5023529;28;20021;-80
2023/08/01 09:39:13;;;;;;;7.47;2.85;;;20.80;99.90;;;20.28;100.00;98933.88;5031043;28;20037;-78
2023/08/01 09:41:44;;;;;;;5.45;2.17;;;20.80;99.90;;;19.87;100.00;98866.72;5018236;28;20173;-78
2023/08/01 09:44:20;;;;;;;3.88;1.60;;;20.80;99.90;;;20.25;100.00;98904.91;5030220;28;20127;-79
2023/08/01 09:46:59;;;;;;;6.45;2.20;;;20.80;99.90;;;20.43;100.00;98934.56;5029493;28;20079;-79
2023/08/01 09:49:27;;;;;;;8.43;2.20;;;20.70;99.90;;;20.55;100.00;98941.09;5012809;28;20046;-80
2023/08/01 09:51:52;;;;;;;5.45;1.98;;;20.80;99.90;;;20.19;100.00;98938.63;5017918;28;20614;-81
2023/08/01 09:54:20;;;;;;;3.88;1.90;;;;;;;20.13;100.00;98943.47;5020249;28;20058;-78
2023/08/01 09:56:56;;;;;;;4.95;1.90;;;;;;;19.68;100.00;98945.28;5029765;28;20037;-79
2023/08/01 09:59:40;;;;;;;6.45;2.05;;;20.60;99.90;;;20.27;100.00;98922.03;5029740;28;20215;-79
2023/08/01 10:02:37;;;;;;;4.55;1.98;;;20.50;99.90;;;20.27;100.00;98901.81;5007671;28;20497;-80
2023/08/01 10:05:40;;;;;;;;;;;;;;;;;;;;;
2023/08/01 10:08:44;;;;;;;4.57;2.42;;;;;;;20.82;100.00;98936.38;5042840;28;20084;-79
2023/08/01 10:11:14;;;;;;;6.25;2.03;;;;;;;20.99;100.00;98934.75;5025843;28;20026;-80
2023/08/01 10:13:54;;;;;;;4.65;2.15;;;20.60;99.90;;;20.27;100.00;98860.28;5024394;28;20037;-78
2023/08/01 10:16:41;;;;;;;4.72;2.10;;;21.40;99.90;;;19.92;100.00;98874.09;5021708;28;20056;-82
2023/08/01 10:19:19;;;;;;;5.55;1.95;;;20.90;99.90;;;19.64;100.00;98880.69;5039346;28;20039;-78
2023/08/01 10:22:10;;;;;;;6.10;2.50;;;20.60;99.90;;;18.35;100.00;98821.31;5026142;28;20040;-78
2023/08/01 10:24:50;;;;;;;7.22;2.50;;;19.60;99.90;;;18.76;100.00;98873.91;5023662;28;20037;-77
2023/08/01 10:28:11;;;;;;;7.00;2.60;;;19.00;99.90;;;19.29;100.00;98843.81;5011303;28;20052;-78